Data for 11/29/2008

Time Sea-Level Adjusted Pressure Absolute Pressure Temperature Relative Humidity Dew Point   
(mb) (inHg) (mb) (inHg) (C) (F) (%) (C) (F)
00:05 1019 30.09 848 25.04 2.8 37.1 65 -3 26.5
00:10 1019 30.09 849 25.07 2.8 37.1 66 -3 26.7
00:15 1020 30.12 849 25.07 2.9 37.1 65 -3 26.5
00:20 1020 30.12 849 25.07 3 37.4 63 -3.4 25.9
00:25 1020 30.12 849 25.07 3.2 37.8 62 -3.5 25.8
00:30 1020 30.12 849 25.07 3.4 38.1 62 -3.2 26.2
00:35 1019 30.09 849 25.07 3.4 38.1 62 -3.3 26
00:40 1019 30.09 849 25.07 3.4 38.1 62 -3.3 26.1
00:45 1019 30.09 849 25.07 3.4 38 63 -3.1 26.4
00:50 1019 30.09 849 25.07 3.2 37.8 64 -2.8 26.9
00:55 1019 30.09 849 25.07 3 37.4 66 -2.7 27.1
01:00 1019 30.09 849 25.07 2.8 37 67 -2.7 27.1
01:05 1019 30.09 849 25.07 2.6 36.6 68 -2.7 27.2
01:10 1019 30.09 849 25.07 2.5 36.5 69 -2.6 27.3
01:15 1019 30.09 849 25.07 2.5 36.4 69 -2.6 27.3
01:20 1019 30.09 849 25.07 2.4 36.3 70 -2.5 27.5
01:25 1019 30.09 849 25.07 2.3 36.2 70 -2.6 27.3
01:30 1019 30.09 848 25.04 2.3 36.2 69 -2.7 27.2
01:35 1019 30.09 848 25.04 2.3 36.2 70 -2.7 27.2
01:40 1019 30.09 848 25.04 2.4 36.4 69 -2.8 27
01:45 1019 30.09 848 25.04 2.5 36.6 67 -2.9 26.7
01:50 1019 30.09 848 25.04 2.7 36.9 66 -3.1 26.4
01:55 1019 30.09 848 25.04 2.9 37.2 65 -3.1 26.5
02:00 1019 30.09 848 25.04 3 37.4 65 -3 26.6
02:05 1019 30.09 849 25.07 3 37.5 65 -2.9 26.8
02:10 1019 30.09 849 25.07 3 37.4 66 -2.8 27
02:15 1019 30.09 849 25.07 2.9 37.2 67 -2.6 27.3
02:20 1019 30.09 849 25.07 2.7 36.9 67 -2.8 27
02:25 1019 30.09 848 25.04 2.8 37 66 -2.9 26.7
02:30 1019 30.09 848 25.04 2.9 37.2 65 -3 26.6
02:35 1019 30.09 848 25.04 3 37.5 65 -2.8 26.9
02:40 1019 30.09 848 25.04 3 37.4 66 -2.7 27.1
02:45 1019 30.09 848 25.04 2.8 37.1 68 -2.6 27.4
02:50 1019 30.09 849 25.07 2.6 36.8 68 -2.7 27.1
02:55 1019 30.09 848 25.04 2.5 36.6 68 -2.7 27.1
03:00 1019 30.09 848 25.04 2.5 36.6 68 -2.7 27.2
03:05 1019 30.09 848 25.04 2.5 36.6 68 -2.8 26.9
03:10 1019 30.09 848 25.04 2.6 36.7 67 -2.8 26.9
03:15 1019 30.09 848 25.04 2.7 36.9 67 -2.8 26.9
03:20 1019 30.09 848 25.04 2.8 37.1 66 -2.9 26.8
03:25 1019 30.09 848 25.04 2.8 37 67 -2.7 27.1
03:30 1019 30.09 848 25.04 2.7 36.8 67 -2.8 26.9
03:35 1019 30.09 848 25.04 2.7 36.8 67 -2.9 26.8
03:40 1019 30.09 848 25.04 2.7 36.8 66 -3 26.7
03:45 1019 30.09 848 25.04 2.7 36.9 66 -2.9 26.7
03:50 1019 30.09 848 25.04 2.7 36.9 65 -3.1 26.5
03:55 1019 30.09 848 25.04 2.8 37.1 66 -3 26.7
04:00 1019 30.09 848 25.04 2.9 37.2 66 -2.9 26.8
04:05 1019 30.09 848 25.04 2.9 37.2 65 -3 26.7
04:10 1019 30.09 848 25.04 2.8 37.1 66 -2.9 26.8
04:15 1019 30.09 848 25.04 2.7 36.9 66 -2.9 26.8
04:20 1019 30.09 848 25.04 2.7 36.9 67 -2.8 27
04:25 1019 30.09 848 25.04 2.8 37 67 -2.6 27.2
04:30 1019 30.09 848 25.04 2.8 37.1 68 -2.5 27.6
04:35 1019 30.09 849 25.07 2.7 36.9 71 -2.1 28.2
04:40 1019 30.09 849 25.07 2.6 36.6 73 -1.8 28.8
04:45 1019 30.09 849 25.07 2.5 36.5 74 -1.7 29
04:50 1019 30.09 849 25.07 2.4 36.4 75 -1.6 29.2
04:55 1019 30.09 849 25.07 2.4 36.4 75 -1.5 29.2
05:00 1019 30.09 849 25.07 2.5 36.4 76 -1.4 29.4
05:05 1020 30.12 849 25.07 2.4 36.3 76 -1.4 29.4
05:10 1019 30.09 849 25.07 2.4 36.3 74 -1.7 28.9
05:15 1019 30.09 849 25.07 2.6 36.7 73 -1.7 29
05:20 1019 30.09 849 25.07 2.7 36.9 72 -1.7 28.9
05:25 1019 30.09 848 25.04 2.7 36.9 73 -1.6 29.1
05:30 1019 30.09 849 25.07 2.7 36.9 73 -1.6 29.2
05:35 1019 30.09 849 25.07 2.6 36.7 73 -1.7 29
05:40 1019 30.09 848 25.04 2.6 36.6 73 -1.8 28.7
05:45 1019 30.09 849 25.07 2.6 36.6 75 -1.5 29.4
05:50 1019 30.09 849 25.07 2 35.6 81 -0.9 30.4
05:55 1019 30.09 849 25.07 1.4 34.5 84 -1.1 30.1
06:00 1019 30.09 849 25.07 1.3 34.4 84 -1.1 29.9
06:05 1019 30.09 849 25.07 1.4 34.4 84 -1.1 30
06:10 1020 30.12 849 25.07 1.4 34.6 83 -1.1 30
06:15 1020 30.12 849 25.07 1.5 34.7 83 -1.1 30
06:20 1020 30.12 849 25.07 1.5 34.7 83 -1.1 30
06:25 1020 30.12 849 25.07 1.5 34.8 83 -1.1 30.1
06:30 1020 30.12 849 25.07 1.5 34.8 82 -1.1 30
06:35 1020 30.12 849 25.07 1.5 34.8 82 -1.1 30
06:40 1020 30.12 849 25.07 1.5 34.6 82 -1.2 29.8
06:45 1020 30.12 849 25.07 1.4 34.6 83 -1.2 29.8
06:50 1020 30.12 849 25.07 1.3 34.4 83 -1.2 29.8
06:55 1020 30.12 849 25.07 1.5 34.7 81 -1.4 29.5
07:00 1020 30.12 849 25.07 1.6 34.9 82 -1.2 29.9
07:05 1020 30.12 849 25.07 1.6 34.8 80 -1.5 29.3
07:10 1020 30.12 849 25.07 1.7 35 80 -1.5 29.3
07:15 1020 30.12 849 25.07 1.8 35.2 78 -1.7 29
07:20 1020 30.12 849 25.07 2.4 36.3 72 -2.2 28.1
07:25 1020 30.12 849 25.07 2.9 37.2 70 -2 28.4
07:30 1020 30.12 849 25.07 3 37.4 69 -2 28.4
07:35 1020 30.12 849 25.07 3 37.5 67 -2.6 27.4
07:40 1020 30.12 850 25.1 3.2 37.8 67 -2.3 27.9
07:45 1021 30.15 850 25.1 3.2 37.7 67 -2.3 27.8
07:50 1021 30.15 850 25.1 3.3 38 65 -2.6 27.2
07:55 1021 30.15 850 25.1 3.5 38.3 65 -2.5 27.5
08:00 1021 30.15 850 25.1 3.5 38.2 67 -2.1 28.1
08:05 1021 30.15 850 25.1 3.4 38 66 -2.4 27.7
08:10 1021 30.15 850 25.1 3.5 38.4 66 -2.1 28.1
08:15 1021 30.15 850 25.1 3.4 38.1 67 -2.2 28.1
08:20 1021 30.15 850 25.1 3.4 38 67 -2.2 28.1
08:25 1021 30.15 850 25.1 3.2 37.7 68 -2.1 28.3
08:30 1021 30.15 850 25.1 3.1 37.6 68 -2.1 28.2
08:35 1021 30.15 850 25.1 3.2 37.8 68 -2.2 28
08:40 1021 30.15 850 25.1 3.2 37.8 68 -2.2 28.1
08:45 1021 30.15 850 25.1 3.3 38 67 -2.3 27.9
08:50 1021 30.15 850 25.1 3.5 38.2 66 -2.2 28
08:55 1021 30.15 850 25.1 3.4 38.2 67 -2.2 28.1
09:00 1021 30.15 850 25.1 3.3 37.9 67 -2.2 28
09:05 1021 30.15 850 25.1 3.3 38 66 -2.4 27.7
09:10 1021 30.15 851 25.13 3.6 38.4 67 -2 28.4
09:15 1021 30.15 851 25.13 3.6 38.6 64 -2.5 27.6
09:20 1021 30.15 851 25.13 3.8 38.8 65 -2.3 27.8
09:25 1021 30.15 850 25.1 3.8 38.8 65 -2.2 28.1
09:30 1021 30.15 850 25.1 3.7 38.6 65 -2.4 27.7
09:35 1021 30.15 851 25.13 3.7 38.7 65 -2.2 28
09:40 1021 30.15 850 25.1 3.7 38.7 65 -2.3 27.8
09:45 1021 30.15 850 25.1 3.7 38.7 66 -2.1 28.2
09:50 1021 30.15 850 25.1 3.7 38.7 66 -2.1 28.2
09:55 1021 30.15 850 25.1 3.8 38.8 65 -2.1 28.2
10:00 1021 30.15 850 25.1 3.8 38.9 65 -2.1 28.3
10:05 1021 30.15 850 25.1 4.2 39.5 65 -1.9 28.6
10:10 1021 30.15 850 25.1 4.1 39.4 65 -2 28.5
10:15 1021 30.15 850 25.1 4.2 39.6 64 -1.9 28.6
10:20 1021 30.15 850 25.1 4.4 39.9 64 -1.8 28.8
10:25 1021 30.15 850 25.1 4.6 40.2 64 -1.7 28.9
10:30 1021 30.15 851 25.13 4.8 40.6 61 -2.2 28.1
10:35 1021 30.15 851 25.13 5.1 41.1 60 -2 28.4
10:40 1021 30.15 850 25.1 5.3 41.6 59 -2 28.5
10:45 1021 30.15 851 25.13 5.2 41.4 59 -2.1 28.3
10:50 1021 30.15 851 25.13 5.3 41.6 59 -1.9 28.5
10:55 1021 30.15 851 25.13 5.5 41.9 59 -2 28.4
11:00 1022 30.18 851 25.13 5.6 42.1 59 -1.8 28.7
11:05 1021 30.15 851 25.13 5.8 42.5 58 -1.8 28.8
11:10 1021 30.15 851 25.13 5.9 42.6 57 -2 28.4
11:15 1021 30.15 851 25.13 5.9 42.6 57 -1.8 28.7
11:20 1021 30.15 850 25.1 6 42.7 58 -1.6 29.1
11:25 1021 30.15 851 25.13 6.2 43.1 57 -1.6 29.1
11:30 1021 30.15 851 25.13 6.1 43 58 -1.6 29.2
11:35 1021 30.15 851 25.13 6.1 43 56 -1.9 28.5
11:40 1021 30.15 851 25.13 5.9 42.5 58 -1.7 29
11:45 1021 30.15 851 25.13 5.9 42.7 58 -1.7 28.9
11:50 1021 30.15 850 25.1 5.9 42.7 57 -1.9 28.6
11:55 1021 30.15 850 25.1 6 42.9 58 -1.7 28.9
12:00 1021 30.15 850 25.1 6.2 43.2 57 -1.7 28.9
12:05 1021 30.15 850 25.1 6 42.8 58 -1.6 29.2
12:10 1021 30.15 850 25.1 6 42.8 56 -2 28.4
12:15 1021 30.15 850 25.1 6.2 43.1 55 -2.1 28.2
12:20 1021 30.15 850 25.1 6.4 43.5 55 -2.1 28.3
12:25 1021 30.15 850 25.1 6.7 44.1 54 -2 28.5
12:30 1021 30.15 850 25.1 6.9 44.4 53 -1.9 28.5
12:35 1021 30.15 850 25.1 7 44.6 54 -1.7 28.9
12:40 1021 30.15 850 25.1 7 44.7 53 -1.8 28.8
12:45 1021 30.15 850 25.1 7.1 44.8 52 -2 28.3
12:50 1021 30.15 850 25.1 7.3 45.1 51 -2.1 28.2
12:55 1021 30.15 850 25.1 7.2 44.9 52 -2 28.4
13:00 1021 30.15 850 25.1 7.7 45.8 50 -2.2 28.1
13:05 1021 30.15 850 25.1 7.9 46.2 49 -2.1 28.3
13:10 1021 30.15 850 25.1 7.8 46.1 50 -2.1 28.3
13:15 1021 30.15 850 25.1 7.9 46.2 49 -2.1 28.2
13:20 1021 30.15 850 25.1 7.6 45.7 51 -1.8 28.7
13:25 1021 30.15 850 25.1 7.3 45.1 52 -2 28.4
13:30 1021 30.15 850 25.1 7.1 44.8 52 -1.9 28.5
13:35 1021 30.15 850 25.1 7.5 45.5 50 -2.3 27.8
13:40 1020 30.12 850 25.1 7.7 45.9 51 -1.8 28.7
13:45 1021 30.15 850 25.1 7.8 46 49 -2.1 28.2
13:50 1021 30.15 850 25.1 7.7 45.8 50 -2.1 28.2
13:55 1021 30.15 850 25.1 7.5 45.4 51 -2 28.5
14:00 1021 30.15 850 25.1 7.2 45 52 -1.9 28.6
14:05 1021 30.15 850 25.1 7.2 44.9 52 -2 28.3
14:10 1021 30.15 850 25.1 7 44.7 53 -1.9 28.5
14:15 1021 30.15 850 25.1 7.1 44.7 53 -1.8 28.8
14:20 1021 30.15 850 25.1 7.1 44.9 52 -1.9 28.5
14:25 1021 30.15 850 25.1 7.2 44.9 53 -1.9 28.6
14:30 1021 30.15 850 25.1 7.1 44.8 53 -1.7 28.9
14:35 1021 30.15 850 25.1 7 44.5 55 -1.5 29.2
14:40 1020 30.12 850 25.1 6.9 44.3 55 -1.6 29.2
14:45 1020 30.12 850 25.1 6.8 44.2 55 -1.5 29.3
14:50 1020 30.12 850 25.1 6.6 43.9 56 -1.4 29.4
14:55 1020 30.12 850 25.1 6.5 43.7 57 -1.4 29.5
15:00 1021 30.15 850 25.1 6.4 43.5 58 -1.4 29.5
15:05 1021 30.15 850 25.1 6.3 43.3 58 -1.3 29.7
15:10 1021 30.15 850 25.1 6.1 43 59 -1.2 29.9
15:15 1021 30.15 850 25.1 6 42.8 60 -1.2 29.9
15:20 1021 30.15 850 25.1 5.8 42.4 64 -0.6 31
15:25 1021 30.15 850 25.1 5.4 41.8 67 -0.2 31.7
15:30 1021 30.15 850 25.1 5.1 41.2 71 0.2 32.4
15:35 1021 30.15 850 25.1 4.8 40.6 73 0.4 32.8
15:40 1021 30.15 850 25.1 4.5 40.2 75 0.4 32.7
15:45 1021 30.15 850 25.1 4.5 40.1 75 0.4 32.7
15:50 1021 30.15 850 25.1 4.4 39.9 77 0.7 33.3
15:55 1021 30.15 850 25.1 4.1 39.3 79 0.8 33.4
16:00 1021 30.15 850 25.1 3.8 38.8 83 1.1 34
16:05 1021 30.15 850 25.1 3.5 38.2 85 1.1 34
16:10 1021 30.15 850 25.1 3.3 37.9 86 1.2 34.1
16:15 1021 30.15 850 25.1 3.2 37.8 86 1.1 34
16:20 1021 30.15 850 25.1 3.2 37.8 86 1.1 34
16:25 1021 30.15 850 25.1 3.4 38.1 86 1.2 34.2
16:30 1021 30.15 850 25.1 3.3 38 86 1.2 34.1
16:35 1021 30.15 850 25.1 3.4 38 85 1.1 34
16:40 1021 30.15 850 25.1 3.4 38.2 84 1 33.9
16:45 1021 30.15 850 25.1 3.4 38.2 83 0.8 33.4
16:50 1021 30.15 850 25.1 3.6 38.5 82 0.8 33.4
16:55 1021 30.15 850 25.1 3.7 38.6 82 0.9 33.6
17:00 1021 30.15 851 25.13 3.6 38.6 83 1 33.8
17:05 1021 30.15 851 25.13 3.6 38.4 82 0.8 33.5
17:10 1021 30.15 851 25.13 3.5 38.2 84 1 33.7
17:15 1021 30.15 851 25.13 3.4 38.1 85 1.2 34.1
17:20 1021 30.15 851 25.13 3.3 37.9 87 1.3 34.3
17:25 1021 30.15 851 25.13 3.2 37.8 88 1.5 34.6
17:30 1021 30.15 851 25.13 3.1 37.6 89 1.4 34.5
17:35 1021 30.15 851 25.13 3.1 37.6 89 1.5 34.7
17:40 1022 30.18 851 25.13 3.1 37.6 89 1.5 34.7
17:45 1021 30.15 851 25.13 3.2 37.7 89 1.5 34.6
17:50 1021 30.15 851 25.13 3.2 37.8 87 1.4 34.4
17:55 1021 30.15 851 25.13 3.2 37.7 87 1.3 34.3
18:00 1021 30.15 850 25.1 3 37.4 88 1.2 34.2
18:05 1021 30.15 850 25.1 2.7 36.8 89 1 33.9
18:10 1021 30.15 850 25.1 2.5 36.6 89 0.8 33.5
18:15 1021 30.15 850 25.1 2.5 36.6 88 0.7 33.3
18:20 1021 30.15 850 25.1 2.6 36.6 88 0.8 33.4
18:25 1021 30.15 850 25.1 2.4 36.3 89 0.7 33.3
18:30 1021 30.15 850 25.1 2.5 36.4 87 0.5 32.8
18:35 1021 30.15 850 25.1 2.8 37 85 0.5 32.9
18:40 1021 30.15 850 25.1 3.1 37.5 83 0.5 32.9
18:45 1021 30.15 850 25.1 3.1 37.6 84 0.7 33.3
18:50 1021 30.15 850 25.1 3 37.3 84 0.5 32.9
18:55 1021 30.15 850 25.1 3.2 37.7 82 0.4 32.8
19:00 1021 30.15 850 25.1 3.3 37.9 82 0.5 33
19:05 1021 30.15 850 25.1 3.2 37.8 83 0.5 32.9
19:10 1021 30.15 850 25.1 3.2 37.8 82 0.5 32.9
19:15 1021 30.15 850 25.1 3.2 37.8 83 0.6 33
19:20 1021 30.15 850 25.1 3.2 37.7 83 0.6 33
19:25 1021 30.15 850 25.1 3.2 37.7 82 0.5 32.8
19:30 1021 30.15 850 25.1 3.2 37.8 81 0.2 32.4
19:35 1021 30.15 850 25.1 3.6 38.5 78 0.2 32.3
19:40 1021 30.15 850 25.1 3.9 39.1 76 0.2 32.3
19:45 1021 30.15 850 25.1 4.1 39.4 76 0.2 32.3
19:50 1021 30.15 850 25.1 4 39.3 77 0.4 32.7
19:55 1021 30.15 850 25.1 3.8 38.9 77 0.2 32.4
20:00 1021 30.15 850 25.1 3.9 39 76 0.1 32.1
20:05 1021 30.15 850 25.1 3.9 39.1 76 0 32
20:10 1021 30.15 850 25.1 3.9 39 76 0.1 32.1
20:15 1021 30.15 850 25.1 3.9 39.1 76 0 32
20:20 1021 30.15 850 25.1 3.9 38.9 77 0.1 32.2
20:25 1021 30.15 850 25.1 3.6 38.5 78 0.1 32.1
20:30 1021 30.15 850 25.1 3.4 38.1 78 -0.1 31.9
20:35 1021 30.15 850 25.1 3.5 38.3 77 -0.1 31.8
20:40 1021 30.15 850 25.1 3.6 38.5 76 -0.2 31.6
20:45 1021 30.15 850 25.1 3.8 38.9 75 -0.1 31.8
20:50 1021 30.15 850 25.1 3.8 38.9 76 0 32.1
20:55 1021 30.15 850 25.1 3.7 38.6 77 -0 32
21:00 1021 30.15 850 25.1 3.7 38.6 76 -0.1 31.7
21:05 1021 30.15 850 25.1 3.8 38.8 76 -0 32
21:10 1021 30.15 850 25.1 3.6 38.4 77 -0 32
21:15 1021 30.15 850 25.1 3.6 38.4 77 -0.1 31.7
21:20 1021 30.15 850 25.1 3.7 38.7 75 -0.3 31.5
21:25 1021 30.15 850 25.1 4.1 39.4 73 -0.2 31.6
21:30 1021 30.15 850 25.1 4.2 39.5 74 -0.1 31.9
21:35 1021 30.15 850 25.1 4.1 39.4 72 -0.4 31.3
21:40 1021 30.15 851 25.13 4.3 39.8 72 -0.2 31.6
21:45 1021 30.15 851 25.13 4.2 39.5 73 -0.2 31.7
21:50 1022 30.18 851 25.13 4.1 39.5 72 -0.4 31.3
21:55 1022 30.18 851 25.13 4.2 39.6 72 -0.3 31.4
22:00 1022 30.18 851 25.13 4.1 39.4 74 -0.1 31.9
22:05 1022 30.18 851 25.13 3.8 38.9 75 -0.1 31.8
22:10 1022 30.18 851 25.13 3.8 38.8 75 -0.3 31.5
22:15 1022 30.18 851 25.13 3.8 38.8 75 -0.3 31.5
22:20 1022 30.18 851 25.13 3.7 38.7 76 -0.2 31.7
22:25 1022 30.18 851 25.13 3.6 38.6 76 -0.3 31.5
22:30 1022 30.18 851 25.13 3.6 38.5 76 -0.3 31.5
22:35 1022 30.18 851 25.13 3.7 38.6 76 -0.2 31.6
22:40 1022 30.18 851 25.13 3.6 38.4 77 -0.1 31.8
22:45 1022 30.18 851 25.13 3.4 38.2 78 -0.1 31.8
22:50 1022 30.18 851 25.13 3.4 38.2 77 -0.2 31.6
22:55 1022 30.18 851 25.13 3.4 38.2 77 -0.1 31.7
23:00 1022 30.18 851 25.13 3.4 38.1 78 -0.1 31.7
23:05 1022 30.18 851 25.13 3.3 38 78 -0.2 31.6
23:10 1022 30.18 851 25.13 3.4 38.1 77 -0.2 31.6
23:15 1022 30.18 851 25.13 3.4 38.1 78 -0.2 31.7
23:20 1022 30.18 851 25.13 3.4 38.1 77 -0.3 31.5
23:25 1022 30.18 851 25.13 3.4 38.1 77 -0.2 31.7
23:30 1022 30.18 851 25.13 3.4 38 77 -0.2 31.6
23:35 1022 30.18 851 25.13 3.3 38 78 -0.2 31.6
23:40 1022 30.18 851 25.13 3.4 38.2 77 -0.3 31.5
23:45 1022 30.18 851 25.13 3.5 38.3 77 -0.2 31.7
23:50 1022 30.18 851 25.13 3.5 38.3 77 -0.2 31.6
23:55 1022 30.18 851 25.13 3.6 38.5 76 -0.2 31.6
24:00 1022 30.18 851 25.13 3.8 38.8 75 -0.3 31.5